createdAt,value
2023-02-03T00:00:31.071Z,1015.86
2023-02-03T00:01:31.102Z,1015.84
2023-02-03T00:02:31.087Z,1015.81
2023-02-03T00:03:31.094Z,1015.78
2023-02-03T00:04:31.108Z,1015.76
2023-02-03T00:05:31.120Z,1015.76
2023-02-03T00:06:31.118Z,1015.72
2023-02-03T00:07:31.128Z,1015.70
2023-02-03T00:08:31.139Z,1015.73
2023-02-03T00:09:31.146Z,1015.72
2023-02-03T00:10:31.156Z,1015.69
2023-02-03T00:11:31.161Z,1015.66
2023-02-03T00:12:31.168Z,1015.69
2023-02-03T00:13:31.191Z,1015.68
2023-02-03T00:14:31.186Z,1015.64
2023-02-03T00:15:31.196Z,1015.61
2023-02-03T00:16:31.344Z,1015.59
2023-02-03T00:17:31.210Z,1015.58
2023-02-03T00:18:31.224Z,1015.60
2023-02-03T00:19:31.235Z,1015.56
2023-02-03T00:20:31.261Z,1015.58
2023-02-03T00:21:31.250Z,1015.56
2023-02-03T00:22:31.263Z,1015.55
2023-02-03T00:23:31.261Z,1015.48
2023-02-03T00:24:31.270Z,1015.41
2023-02-03T00:25:31.288Z,1015.33
2023-02-03T00:26:31.293Z,1015.32
2023-02-03T00:27:31.306Z,1015.31
2023-02-03T00:28:31.307Z,1015.25
2023-02-03T00:29:31.316Z,1015.23
2023-02-03T00:30:31.323Z,1015.17
2023-02-03T00:31:31.401Z,1015.16
2023-02-03T00:32:31.460Z,1015.11
2023-02-03T00:33:31.350Z,1015.08
2023-02-03T00:34:31.365Z,1015.08
2023-02-03T00:35:31.364Z,1015.05
2023-02-03T00:36:31.383Z,1015.04
2023-02-03T00:37:31.383Z,1015.02
2023-02-03T00:38:31.386Z,1015.02
2023-02-03T00:39:31.394Z,1015.05
2023-02-03T00:40:31.415Z,1015.01
2023-02-03T00:41:31.416Z,1014.94
2023-02-03T00:42:31.432Z,1014.92
2023-02-03T00:43:31.450Z,1014.86
2023-02-03T00:44:31.443Z,1014.80
2023-02-03T00:45:31.486Z,1014.77
2023-02-03T00:46:31.477Z,1014.71
2023-02-03T00:47:31.466Z,1014.69
2023-02-03T00:48:31.470Z,1014.63
2023-02-03T00:49:31.477Z,1014.65
2023-02-03T00:50:31.487Z,1014.69
2023-02-03T00:51:31.495Z,1014.73
2023-02-03T00:52:31.504Z,1014.66
2023-02-03T00:53:31.518Z,1014.67
2023-02-03T00:54:32.794Z,1014.71
2023-02-03T00:55:31.526Z,1014.70
2023-02-03T00:56:31.539Z,1014.71
2023-02-03T00:57:31.559Z,1014.63
2023-02-03T00:58:31.548Z,1014.57
2023-02-03T00:59:31.557Z,1014.60
2023-02-03T01:00:31.569Z,1014.64
2023-02-03T01:01:31.638Z,1014.64
2023-02-03T01:02:31.621Z,1014.57
2023-02-03T01:03:31.591Z,1014.53
2023-02-03T01:04:31.599Z,1014.48
2023-02-03T01:05:31.621Z,1014.46
2023-02-03T01:06:31.616Z,1014.45
2023-02-03T01:07:31.624Z,1014.44
2023-02-03T01:08:31.635Z,1014.39
2023-02-03T01:09:31.655Z,1014.39
2023-02-03T01:10:31.648Z,1014.39
2023-02-03T01:11:31.654Z,1014.34
2023-02-03T01:12:31.663Z,1014.36
2023-02-03T01:13:31.677Z,1014.31
2023-02-03T01:14:31.683Z,1014.31
2023-02-03T01:15:31.687Z,1014.34
2023-02-03T01:16:31.759Z,1014.35
2023-02-03T01:17:31.728Z,1014.36
2023-02-03T01:18:31.719Z,1014.35
2023-02-03T01:19:31.725Z,1014.28
2023-02-03T01:20:31.731Z,1014.31
2023-02-03T01:21:31.736Z,1014.24
2023-02-03T01:22:31.745Z,1014.24
2023-02-03T01:23:31.755Z,1014.16
2023-02-03T01:24:31.758Z,1014.17
2023-02-03T01:25:31.769Z,1014.15
2023-02-03T01:26:31.775Z,1014.15
2023-02-03T01:27:31.786Z,1014.18
2023-02-03T01:28:31.800Z,1014.17
2023-02-03T01:29:31.801Z,1014.18
2023-02-03T01:30:31.847Z,1014.17
2023-02-03T01:31:31.966Z,1014.11
2023-02-03T01:32:31.845Z,1014.10
2023-02-03T01:33:31.835Z,1014.07
2023-02-03T01:34:31.846Z,1014.00
2023-02-03T01:35:31.850Z,1013.93
2023-02-03T01:36:31.860Z,1013.83
2023-02-03T01:37:31.866Z,1013.79
2023-02-03T01:38:31.878Z,1013.80
2023-02-03T01:39:31.882Z,1013.80
2023-02-03T01:40:31.891Z,1013.83
2023-02-03T01:41:31.901Z,1013.78
2023-02-03T01:42:31.908Z,1013.79
2023-02-03T01:43:31.914Z,1013.78
2023-02-03T01:44:31.922Z,1013.74
2023-02-03T01:45:31.933Z,1013.73
2023-02-03T01:46:32.001Z,1013.76
2023-02-03T01:47:31.945Z,1013.66
2023-02-03T01:48:31.965Z,1013.64
2023-02-03T01:49:31.963Z,1013.52
2023-02-03T01:50:31.970Z,1013.48
2023-02-03T01:51:31.979Z,1013.41
2023-02-03T01:52:31.989Z,1013.43
2023-02-03T01:53:31.999Z,1013.41
2023-02-03T01:54:32.003Z,1013.37
2023-02-03T01:55:32.013Z,1013.34
2023-02-03T01:56:32.019Z,1013.30
2023-02-03T01:57:32.029Z,1013.33
2023-02-03T01:58:32.041Z,1013.19
2023-02-03T01:59:32.042Z,1013.24
2023-02-03T02:00:32.060Z,1013.23
2023-02-03T02:01:32.090Z,1013.28
2023-02-03T02:02:32.125Z,1013.20
2023-02-03T02:03:32.078Z,1013.15
2023-02-03T02:04:32.085Z,1013.14
2023-02-03T02:05:32.092Z,1013.14
2023-02-03T02:06:32.103Z,1013.12
2023-02-03T02:07:32.108Z,1013.13
2023-02-03T02:08:32.130Z,1013.16
2023-02-03T02:09:32.124Z,1013.15
2023-02-03T02:10:32.132Z,1013.12
2023-02-03T02:11:32.152Z,1013.06
2023-02-03T02:12:32.153Z,1012.96
2023-02-03T02:13:32.161Z,1012.98
2023-02-03T02:14:32.165Z,1012.91
2023-02-03T02:15:32.258Z,1012.87
2023-02-03T02:16:32.182Z,1012.81
2023-02-03T02:17:32.195Z,1012.81
2023-02-03T02:18:32.220Z,1012.79
2023-02-03T02:19:32.205Z,1012.76
2023-02-03T02:20:32.215Z,1012.71
2023-02-03T02:21:32.226Z,1012.71
2023-02-03T02:22:32.230Z,1012.62
2023-02-03T02:23:32.238Z,1012.64
2023-02-03T02:24:32.245Z,1012.63
2023-02-03T02:25:32.253Z,1012.58
2023-02-03T02:26:32.262Z,1012.50
2023-02-03T02:27:32.276Z,1012.48
2023-02-03T02:28:32.278Z,1012.46
2023-02-03T02:29:32.288Z,1012.42
2023-02-03T02:30:32.329Z,1012.36
2023-02-03T02:31:32.401Z,1012.32
2023-02-03T02:32:32.314Z,1012.24
2023-02-03T02:33:32.318Z,1012.29
2023-02-03T02:34:32.333Z,1012.24
2023-02-03T02:35:32.332Z,1012.16
2023-02-03T02:36:32.343Z,1012.09
2023-02-03T02:37:32.350Z,1012.07
2023-02-03T02:38:32.363Z,1012.03
2023-02-03T02:39:32.369Z,1011.99
2023-02-03T02:40:32.374Z,1011.93
2023-02-03T02:41:32.384Z,1011.87
2023-02-03T02:42:32.395Z,1011.88
2023-02-03T02:43:32.401Z,1011.86
2023-02-03T02:44:32.407Z,1011.84
2023-02-03T02:45:32.417Z,1011.74
2023-02-03T02:46:32.485Z,1011.75
2023-02-03T02:47:32.439Z,1011.73
2023-02-03T02:48:32.445Z,1011.72
2023-02-03T02:49:32.452Z,1011.69
2023-02-03T02:50:32.454Z,1011.63
2023-02-03T02:51:32.466Z,1011.65
2023-02-03T02:52:32.482Z,1011.62
2023-02-03T02:53:32.486Z,1011.62
2023-02-03T02:54:32.495Z,1011.62
2023-02-03T02:55:32.492Z,1011.58
2023-02-03T02:56:32.503Z,1011.55
2023-02-03T02:57:32.517Z,1011.56
2023-02-03T02:58:32.524Z,1011.58
2023-02-03T02:59:32.535Z,1011.54
2023-02-03T03:00:32.533Z,1011.48
2023-02-03T03:01:32.597Z,1011.44
2023-02-03T03:02:32.550Z,1011.44
2023-02-03T03:03:32.558Z,1011.42
2023-02-03T03:04:32.600Z,1011.29
2023-02-03T03:05:32.595Z,1011.33
2023-02-03T03:06:32.600Z,1011.31
2023-02-03T03:07:32.592Z,1011.30
2023-02-03T03:08:32.601Z,1011.30
2023-02-03T03:09:32.619Z,1011.32
2023-02-03T03:10:32.634Z,1011.26
2023-02-03T03:11:32.624Z,1011.28
2023-02-03T03:12:32.636Z,1011.28
2023-02-03T03:13:32.645Z,1011.21
2023-02-03T03:14:32.648Z,1011.25
2023-02-03T03:15:32.760Z,1011.29
2023-02-03T03:16:32.663Z,1011.29
2023-02-03T03:17:32.675Z,1011.33
2023-02-03T03:18:32.679Z,1011.24
2023-02-03T03:19:32.724Z,1011.12
2023-02-03T03:20:32.699Z,1011.03
2023-02-03T03:21:32.715Z,1011.02
2023-02-03T03:22:32.713Z,1011.00
2023-02-03T03:23:32.719Z,1010.98
2023-02-03T03:24:32.731Z,1010.90
2023-02-03T03:25:32.740Z,1010.87
2023-02-03T03:26:32.748Z,1010.88
2023-02-03T03:27:32.753Z,1010.84
2023-02-03T03:28:32.760Z,1010.79
2023-02-03T03:29:32.771Z,1010.76
2023-02-03T03:30:32.850Z,1010.69
2023-02-03T03:31:32.924Z,1010.68
2023-02-03T03:32:32.796Z,1010.68
2023-02-03T03:33:32.803Z,1010.67
2023-02-03T03:34:32.812Z,1010.65
2023-02-03T03:35:32.818Z,1010.66
2023-02-03T03:36:32.828Z,1010.57
2023-02-03T03:37:32.838Z,1010.58
2023-02-03T03:38:32.841Z,1010.54
2023-02-03T03:39:32.849Z,1010.49
2023-02-03T03:40:32.861Z,1010.45
2023-02-03T03:41:32.874Z,1010.42
2023-02-03T03:42:32.874Z,1010.41
2023-02-03T03:43:32.887Z,1010.45
2023-02-03T03:44:32.890Z,1010.49
2023-02-03T03:45:32.898Z,1010.50
2023-02-03T03:46:32.969Z,1010.51
2023-02-03T03:47:32.943Z,1010.55
2023-02-03T03:48:32.920Z,1010.53
2023-02-03T03:49:32.934Z,1010.55
2023-02-03T03:50:32.937Z,1010.43
2023-02-03T03:51:32.945Z,1010.39
2023-02-03T03:52:32.957Z,1010.38
2023-02-03T03:53:32.963Z,1010.37
2023-02-03T03:54:32.971Z,1010.34
2023-02-03T03:55:32.979Z,1010.39
2023-02-03T03:56:32.996Z,1010.38
2023-02-03T03:57:32.997Z,1010.41
2023-02-03T03:58:33.026Z,1010.41
2023-02-03T03:59:33.018Z,1010.40
2023-02-03T04:00:33.018Z,1010.41
2023-02-03T04:01:33.128Z,1010.36
2023-02-03T04:02:33.121Z,1010.37
2023-02-03T04:03:33.043Z,1010.34
2023-02-03T04:04:33.052Z,1010.35
2023-02-03T04:05:33.059Z,1010.34
2023-02-03T04:06:33.069Z,1010.33
2023-02-03T04:07:33.078Z,1010.27
2023-02-03T04:08:33.108Z,1010.26
2023-02-03T04:09:33.102Z,1010.31
2023-02-03T04:10:33.105Z,1010.26
2023-02-03T04:11:33.108Z,1010.21
2023-02-03T04:12:33.129Z,1010.21
2023-02-03T04:13:33.126Z,1010.17
2023-02-03T04:14:33.134Z,1010.13
2023-02-03T04:15:33.152Z,1010.00
2023-02-03T04:16:33.204Z,1010.02
2023-02-03T04:17:33.167Z,1010.01
2023-02-03T04:18:33.174Z,1009.92
2023-02-03T04:19:33.176Z,1009.91
2023-02-03T04:20:33.204Z,1009.92
2023-02-03T04:21:33.192Z,1009.89
2023-02-03T04:22:33.212Z,1009.97
2023-02-03T04:23:33.208Z,1009.89
2023-02-03T04:24:33.218Z,1009.96
2023-02-03T04:25:33.243Z,1009.93
2023-02-03T04:26:33.242Z,1009.86
2023-02-03T04:27:33.241Z,1009.85
2023-02-03T04:28:33.248Z,1009.83
2023-02-03T04:29:33.262Z,1009.83
2023-02-03T04:30:33.345Z,1009.79
2023-02-03T04:31:33.370Z,1009.72
2023-02-03T04:32:33.284Z,1009.63
2023-02-03T04:33:33.291Z,1009.67
2023-02-03T04:34:33.307Z,1009.67
2023-02-03T04:35:33.309Z,1009.64
2023-02-03T04:36:33.324Z,1009.63
2023-02-03T04:37:33.325Z,1009.58
2023-02-03T04:38:33.337Z,1009.62
2023-02-03T04:39:33.340Z,1009.58
2023-02-03T04:40:34.991Z,1009.59
2023-02-03T04:41:33.377Z,1009.56
2023-02-03T04:42:33.372Z,1009.52
2023-02-03T04:43:33.376Z,1009.41
2023-02-03T04:44:33.386Z,1009.34
2023-02-03T04:45:33.453Z,1009.39
2023-02-03T04:46:33.410Z,1009.29
2023-02-03T04:47:33.410Z,1009.32
2023-02-03T04:48:33.420Z,1009.31
2023-02-03T04:49:33.430Z,1009.29
2023-02-03T04:50:33.440Z,1009.29
2023-02-03T04:51:33.455Z,1009.27
2023-02-03T04:52:33.460Z,1009.20
2023-02-03T04:53:33.467Z,1009.18
2023-02-03T04:54:33.469Z,1009.17
2023-02-03T04:55:33.478Z,1009.10
2023-02-03T04:56:33.489Z,1009.02
2023-02-03T04:57:33.495Z,1008.98
2023-02-03T04:58:33.506Z,1008.93
2023-02-03T04:59:33.511Z,1008.92
2023-02-03T05:00:33.524Z,1008.99
2023-02-03T05:01:33.539Z,1008.98
2023-02-03T05:02:33.540Z,1008.97
2023-02-03T05:03:33.620Z,1008.95
2023-02-03T05:04:33.557Z,1009.01
2023-02-03T05:05:33.568Z,1008.94
2023-02-03T05:06:33.574Z,1008.95
2023-02-03T05:07:33.591Z,1009.01
2023-02-03T05:08:33.600Z,1009.01
2023-02-03T05:09:33.607Z,1008.93
2023-02-03T05:10:33.613Z,1008.86
2023-02-03T05:11:33.623Z,1008.88
2023-02-03T05:12:33.636Z,1008.95
2023-02-03T05:13:33.642Z,1008.94
2023-02-03T05:14:33.649Z,1008.97
2023-02-03T05:15:33.658Z,1008.96
2023-02-03T05:16:33.693Z,1008.95
2023-02-03T05:17:33.674Z,1008.85
2023-02-03T05:18:33.684Z,1008.84
2023-02-03T05:19:33.698Z,1008.86
2023-02-03T05:20:33.707Z,1008.79
2023-02-03T05:21:33.714Z,1008.74
2023-02-03T05:22:33.722Z,1008.79
2023-02-03T05:23:36.126Z,1008.79
2023-02-03T05:24:33.742Z,1008.76
2023-02-03T05:25:33.757Z,1008.72
2023-02-03T05:26:33.764Z,1008.67
2023-02-03T05:27:33.775Z,1008.69
2023-02-03T05:28:33.781Z,1008.65
2023-02-03T05:29:33.841Z,1008.57
2023-02-03T05:30:33.828Z,1008.61
2023-02-03T05:31:33.894Z,1008.60
2023-02-03T05:32:33.817Z,1008.56
2023-02-03T05:33:33.825Z,1008.62
2023-02-03T05:34:33.851Z,1008.57
2023-02-03T05:35:33.872Z,1008.59
2023-02-03T05:36:33.860Z,1008.58
2023-02-03T05:37:33.886Z,1008.58
2023-02-03T05:38:33.878Z,1008.52
2023-02-03T05:39:33.886Z,1008.44
2023-02-03T05:40:33.895Z,1008.45
2023-02-03T05:41:33.902Z,1008.41
2023-02-03T05:42:33.917Z,1008.41
2023-02-03T05:43:33.921Z,1008.43
2023-02-03T05:44:33.934Z,1008.45
2023-02-03T05:45:34.053Z,1008.44
2023-02-03T05:46:33.964Z,1008.44
2023-02-03T05:47:33.967Z,1008.40
2023-02-03T05:48:33.970Z,1008.41
2023-02-03T05:49:33.983Z,1008.41
2023-02-03T05:50:33.994Z,1008.41
2023-02-03T05:51:34.004Z,1008.33
2023-02-03T05:52:34.010Z,1008.32
2023-02-03T05:53:34.021Z,1008.27
2023-02-03T05:54:34.035Z,1008.24
2023-02-03T05:55:34.039Z,1008.21
2023-02-03T05:56:34.053Z,1008.17
2023-02-03T05:57:34.060Z,1008.15
2023-02-03T05:58:34.071Z,1008.12
2023-02-03T05:59:34.080Z,1008.18
2023-02-03T06:00:34.097Z,1008.16
2023-02-03T06:01:34.109Z,1008.13
2023-02-03T06:02:34.126Z,1008.13
2023-02-03T06:03:34.160Z,1008.05
2023-02-03T06:04:34.189Z,1008.03
2023-02-03T06:05:34.142Z,1007.97
2023-02-03T06:06:34.148Z,1007.95
2023-02-03T06:07:34.182Z,1008.00
2023-02-03T06:08:34.173Z,1007.95
2023-02-03T06:09:34.182Z,1007.95
2023-02-03T06:10:34.189Z,1007.84
2023-02-03T06:11:34.201Z,1007.82
2023-02-03T06:12:34.216Z,1007.79
2023-02-03T06:13:34.229Z,1007.81
2023-02-03T06:14:34.246Z,1007.70
2023-02-03T06:15:34.245Z,1007.74
2023-02-03T06:16:34.269Z,1007.76
2023-02-03T06:17:34.263Z,1007.67
2023-02-03T06:18:34.272Z,1007.66
2023-02-03T06:19:34.285Z,1007.66
2023-02-03T06:20:34.305Z,1007.72
2023-02-03T06:21:34.324Z,1007.67
2023-02-03T06:22:34.320Z,1007.69
2023-02-03T06:23:34.330Z,1007.70
2023-02-03T06:24:34.336Z,1007.64
2023-02-03T06:25:34.347Z,1007.59
2023-02-03T06:26:34.353Z,1007.59
2023-02-03T06:27:34.368Z,1007.57
2023-02-03T06:28:34.392Z,1007.60
2023-02-03T06:29:34.395Z,1007.67
2023-02-03T06:30:34.464Z,1007.64
2023-02-03T06:31:34.522Z,1007.68
2023-02-03T06:32:34.429Z,1007.72
2023-02-03T06:33:34.429Z,1007.69
2023-02-03T06:34:34.441Z,1007.67
2023-02-03T06:35:34.455Z,1007.69
2023-02-03T06:36:34.502Z,1007.79
2023-02-03T06:37:34.472Z,1007.77
2023-02-03T06:38:34.483Z,1007.70
2023-02-03T06:39:34.492Z,1007.63
2023-02-03T06:40:34.506Z,1007.61
2023-02-03T06:41:34.514Z,1007.64
2023-02-03T06:42:34.532Z,1007.69
2023-02-03T06:43:34.534Z,1007.61
2023-02-03T06:44:34.552Z,1007.57
2023-02-03T06:45:34.596Z,1007.67
2023-02-03T06:46:34.616Z,1007.66
2023-02-03T06:47:34.580Z,1007.60
2023-02-03T06:48:34.584Z,1007.59
2023-02-03T06:49:34.598Z,1007.51
2023-02-03T06:50:34.617Z,1007.48
2023-02-03T06:51:34.617Z,1007.50
2023-02-03T06:52:34.632Z,1007.42
2023-02-03T06:53:34.638Z,1007.33
2023-02-03T06:54:34.655Z,1007.37
2023-02-03T06:55:34.659Z,1007.35
2023-02-03T06:56:34.674Z,1007.40
2023-02-03T06:57:34.833Z,1007.37
2023-02-03T06:58:34.705Z,1007.43
2023-02-03T06:59:34.705Z,1007.41
2023-02-03T07:00:34.715Z,1007.36
2023-02-03T07:01:34.773Z,1007.34
2023-02-03T07:02:34.759Z,1007.34
2023-02-03T07:03:34.746Z,1007.30
2023-02-03T07:04:34.757Z,1007.23
2023-02-03T07:05:34.769Z,1007.27
2023-02-03T07:06:34.776Z,1007.25
2023-02-03T07:07:34.786Z,1007.20
2023-02-03T07:08:34.799Z,1007.24
2023-02-03T07:09:34.816Z,1007.23
2023-02-03T07:10:34.827Z,1007.20
2023-02-03T07:11:34.832Z,1007.13
2023-02-03T07:12:34.841Z,1007.03
2023-02-03T07:13:34.860Z,1007.07
2023-02-03T07:14:34.862Z,1007.07
2023-02-03T07:15:34.945Z,1006.99
2023-02-03T07:16:34.887Z,1006.99
2023-02-03T07:17:34.895Z,1007.00
2023-02-03T07:18:49.965Z,1007.00
2023-02-03T07:19:34.927Z,1006.93
2023-02-03T07:20:34.928Z,1006.92
2023-02-03T07:21:34.939Z,1006.86
2023-02-03T07:22:34.952Z,1006.88
2023-02-03T07:23:34.982Z,1006.94
2023-02-03T07:24:34.977Z,1006.85
2023-02-03T07:25:34.992Z,1006.81
2023-02-03T07:26:34.997Z,1006.84
2023-02-03T07:27:35.002Z,1006.82
2023-02-03T07:28:35.039Z,1006.82
2023-02-03T07:29:35.037Z,1006.72
2023-02-03T07:30:35.041Z,1006.72
2023-02-03T07:31:35.157Z,1006.70
2023-02-03T07:32:35.060Z,1006.75
2023-02-03T07:33:35.068Z,1006.61
2023-02-03T07:34:35.078Z,1006.57
2023-02-03T07:35:35.096Z,1006.62
2023-02-03T07:36:35.102Z,1006.53
2023-02-03T07:37:35.136Z,1006.55
2023-02-03T07:38:35.123Z,1006.50
2023-02-03T07:39:35.135Z,1006.47
2023-02-03T07:40:35.150Z,1006.48
2023-02-03T07:41:35.155Z,1006.49
2023-02-03T07:42:35.171Z,1006.47
2023-02-03T07:43:35.177Z,1006.47
2023-02-03T07:44:35.189Z,1006.48
2023-02-03T07:45:35.197Z,1006.44
2023-02-03T07:46:35.225Z,1006.39
2023-02-03T07:47:35.235Z,1006.37
2023-02-03T07:48:35.245Z,1006.41
2023-02-03T07:49:35.251Z,1006.35
2023-02-03T07:50:35.250Z,1006.28
2023-02-03T07:51:35.271Z,1006.29
2023-02-03T07:52:35.284Z,1006.29
2023-02-03T07:53:35.286Z,1006.21
2023-02-03T07:54:35.301Z,1006.22
2023-02-03T07:55:35.311Z,1006.18
2023-02-03T07:56:35.328Z,1006.24
2023-02-03T07:57:35.365Z,1006.24
2023-02-03T07:58:35.348Z,1006.14
2023-02-03T07:59:35.349Z,1006.19
2023-02-03T08:00:35.370Z,1006.10
2023-02-03T08:01:35.380Z,1006.14
2023-02-03T08:02:35.385Z,1006.06
2023-02-03T08:03:35.395Z,1006.13
2023-02-03T08:04:35.450Z,1006.13
2023-02-03T08:05:35.423Z,1006.23
2023-02-03T08:06:35.432Z,1005.98
2023-02-03T08:07:35.457Z,1006.10
2023-02-03T08:08:35.466Z,1006.04
2023-02-03T08:09:35.475Z,1006.02
2023-02-03T08:10:35.481Z,1006.05
2023-02-03T08:11:35.484Z,1005.97
2023-02-03T08:12:35.494Z,1005.92
2023-02-03T08:13:35.515Z,1005.93
2023-02-03T08:14:35.519Z,1005.86
2023-02-03T08:15:35.529Z,1005.78
2023-02-03T08:16:35.601Z,1005.77
2023-02-03T08:17:35.553Z,1005.78
2023-02-03T08:18:35.563Z,1005.74
2023-02-03T08:19:35.580Z,1005.74
2023-02-03T08:20:35.600Z,1005.75
2023-02-03T08:21:35.597Z,1005.70
2023-02-03T08:22:35.607Z,1005.73
2023-02-03T08:23:35.624Z,1005.81
2023-02-03T08:24:35.640Z,1005.75
2023-02-03T08:25:35.640Z,1005.70
2023-02-03T08:26:35.654Z,1005.66
2023-02-03T08:27:35.662Z,1005.62
2023-02-03T08:28:35.703Z,1005.62
2023-02-03T08:29:35.687Z,1005.61
2023-02-03T08:30:35.697Z,1005.61
2023-02-03T08:31:35.854Z,1005.67
2023-02-03T08:32:35.718Z,1005.60
2023-02-03T08:33:35.730Z,1005.63
2023-02-03T08:34:35.743Z,1005.54
2023-02-03T08:35:35.752Z,1005.59
2023-02-03T08:36:35.768Z,1005.55
2023-02-03T08:37:35.777Z,1005.55
2023-02-03T08:38:35.784Z,1005.49
2023-02-03T08:39:35.801Z,1005.52
2023-02-03T08:40:35.815Z,1005.47
2023-02-03T08:41:35.823Z,1005.58
2023-02-03T08:42:35.832Z,1005.46
2023-02-03T08:43:35.841Z,1005.54
2023-02-03T08:44:35.860Z,1005.41
2023-02-03T08:45:35.929Z,1005.41
2023-02-03T08:46:35.884Z,1005.36
2023-02-03T08:47:35.884Z,1005.34
2023-02-03T08:48:35.901Z,1005.42
2023-02-03T08:49:35.975Z,1005.36
2023-02-03T08:50:35.918Z,1005.43
2023-02-03T08:51:35.929Z,1005.38
2023-02-03T08:52:35.939Z,1005.30
2023-02-03T08:53:35.953Z,1005.32
2023-02-03T08:54:35.960Z,1005.28
2023-02-03T08:55:35.973Z,1005.26
2023-02-03T08:56:35.986Z,1005.27
2023-02-03T08:57:36.017Z,1005.17
2023-02-03T08:58:36.007Z,1005.21
2023-02-03T08:59:36.057Z,1005.21
2023-02-03T09:00:36.028Z,1005.13
2023-02-03T09:01:36.040Z,1005.16
2023-02-03T09:02:36.070Z,1005.08
2023-02-03T09:03:36.077Z,1005.24
2023-02-03T09:04:36.111Z,1005.10
2023-02-03T09:05:36.092Z,1005.14
2023-02-03T09:06:36.100Z,1005.10
2023-02-03T09:07:36.110Z,1005.08
2023-02-03T09:08:36.130Z,1005.16
2023-02-03T09:09:36.145Z,1005.10
2023-02-03T09:10:36.142Z,1005.14
2023-02-03T09:11:36.152Z,1005.09
2023-02-03T09:12:36.168Z,1005.09
2023-02-03T09:13:36.177Z,1005.14
2023-02-03T09:14:36.187Z,1005.09
2023-02-03T09:15:36.206Z,1004.99
2023-02-03T09:16:36.232Z,1005.00
2023-02-03T09:17:36.219Z,1004.84
2023-02-03T09:18:36.231Z,1004.96
2023-02-03T09:19:36.754Z,1005.04
2023-02-03T09:20:36.258Z,1004.99
2023-02-03T09:21:42.023Z,1005.03
2023-02-03T09:22:36.281Z,1004.96
2023-02-03T09:23:36.293Z,1004.98
2023-02-03T09:24:36.313Z,1004.92
2023-02-03T09:25:36.310Z,1004.97
2023-02-03T09:26:36.324Z,1004.86
2023-02-03T09:27:36.340Z,1004.93
2023-02-03T09:28:36.348Z,1004.91
2023-02-03T09:29:36.379Z,1004.90
2023-02-03T09:30:36.398Z,1004.93
2023-02-03T09:31:36.420Z,1004.93
2023-02-03T09:32:36.398Z,1004.79
2023-02-03T09:33:36.410Z,1004.79
2023-02-03T09:34:36.410Z,1004.74
2023-02-03T09:35:36.435Z,1004.83
2023-02-03T09:36:36.442Z,1004.71
2023-02-03T09:37:36.448Z,1004.66
2023-02-03T09:38:36.457Z,1004.72
2023-02-03T09:39:36.472Z,1004.66
2023-02-03T09:40:36.490Z,1004.57
2023-02-03T09:41:36.490Z,1004.62
2023-02-03T09:42:36.504Z,1004.62
2023-02-03T09:43:36.515Z,1004.58
2023-02-03T09:44:36.528Z,1004.66
2023-02-03T09:45:36.565Z,1004.71
2023-02-03T09:46:36.548Z,1004.57
2023-02-03T09:47:36.581Z,1004.52
2023-02-03T09:48:36.582Z,1004.51
2023-02-03T09:49:36.584Z,1004.47
2023-02-03T09:50:36.601Z,1004.50
2023-02-03T09:51:36.603Z,1004.46
2023-02-03T09:52:36.617Z,1004.40
2023-02-03T09:53:36.627Z,1004.42
2023-02-03T09:54:36.637Z,1004.44
2023-02-03T09:55:36.646Z,1004.45
2023-02-03T09:56:36.661Z,1004.45
2023-02-03T09:57:36.672Z,1004.45
2023-02-03T09:58:36.684Z,1004.32
2023-02-03T09:59:36.696Z,1004.36
2023-02-03T10:00:36.712Z,1004.22
2023-02-03T10:01:36.781Z,1004.37
2023-02-03T10:02:36.757Z,1004.40
2023-02-03T10:03:36.740Z,1004.33
2023-02-03T10:04:36.750Z,1004.33
2023-02-03T10:05:36.768Z,1004.29
2023-02-03T10:06:36.776Z,1004.21
2023-02-03T10:07:36.787Z,1004.15
2023-02-03T10:08:36.794Z,1004.14
2023-02-03T10:09:36.809Z,1004.13
2023-02-03T10:10:36.826Z,1004.10
2023-02-03T10:11:36.831Z,1004.03
2023-02-03T10:12:36.843Z,1004.09
2023-02-03T10:13:38.051Z,1003.95
2023-02-03T10:14:36.870Z,1003.92
2023-02-03T10:15:36.887Z,1003.96
2023-02-03T10:16:36.917Z,1003.84
2023-02-03T10:17:36.917Z,1003.63
2023-02-03T10:18:36.924Z,1003.68
2023-02-03T10:19:36.927Z,1003.65
2023-02-03T10:20:36.980Z,1003.65
2023-02-03T10:21:36.950Z,1003.71
2023-02-03T10:22:36.953Z,1003.58
2023-02-03T10:23:36.969Z,1003.67
2023-02-03T10:24:36.981Z,1003.54
2023-02-03T10:25:36.986Z,1003.59
2023-02-03T10:26:37.005Z,1003.61
2023-02-03T10:27:37.043Z,1003.62
2023-02-03T10:28:37.023Z,1003.56
2023-02-03T10:29:37.046Z,1003.62
2023-02-03T10:30:37.151Z,1003.52
2023-02-03T10:31:37.165Z,1003.40
2023-02-03T10:32:37.076Z,1003.56
2023-02-03T10:33:37.079Z,1003.57
2023-02-03T10:34:37.090Z,1003.69
2023-02-03T10:35:37.103Z,1003.62
2023-02-03T10:36:37.113Z,1003.62
2023-02-03T10:37:37.138Z,1003.58
2023-02-03T10:38:37.145Z,1003.66
2023-02-03T10:39:37.151Z,1003.66
2023-02-03T10:40:37.194Z,1003.61
2023-02-03T10:41:37.172Z,1003.65
2023-02-03T10:42:37.182Z,1003.81
2023-02-03T10:43:37.204Z,1003.61
2023-02-03T10:44:37.209Z,1003.72
2023-02-03T10:45:37.218Z,1003.73
2023-02-03T10:46:37.255Z,1003.61
2023-02-03T10:47:37.241Z,1003.87
2023-02-03T10:48:37.264Z,1003.70
2023-02-03T10:49:37.264Z,1003.96
2023-02-03T10:50:37.274Z,1004.24
2023-02-03T10:51:37.288Z,1004.24
2023-02-03T10:52:37.305Z,1004.40
2023-02-03T10:53:37.307Z,1004.67
2023-02-03T10:54:37.319Z,1004.91
2023-02-03T10:55:37.333Z,1004.53
2023-02-03T10:56:37.344Z,1004.15
2023-02-03T10:57:37.357Z,1004.61
2023-02-03T10:58:37.378Z,1004.63
2023-02-03T10:59:37.376Z,1004.60
2023-02-03T11:00:37.386Z,1004.73
2023-02-03T11:01:37.425Z,1004.66
2023-02-03T11:02:37.486Z,1004.64
2023-02-03T11:03:37.426Z,1004.63
2023-02-03T11:04:37.432Z,1004.64
2023-02-03T11:05:37.444Z,1004.84
2023-02-03T11:06:37.455Z,1004.71
2023-02-03T11:07:37.468Z,1004.67
2023-02-03T11:08:37.479Z,1004.64
2023-02-03T11:09:37.487Z,1004.63
2023-02-03T11:10:37.495Z,1004.60
2023-02-03T11:11:37.508Z,1004.68
2023-02-03T11:12:37.520Z,1004.73
2023-02-03T11:13:37.532Z,1004.66
2023-02-03T11:14:37.539Z,1004.61
2023-02-03T11:15:37.587Z,1004.53
2023-02-03T11:16:39.607Z,1004.70
2023-02-03T11:17:37.571Z,1004.62
2023-02-03T11:18:37.586Z,1004.63
2023-02-03T11:19:37.595Z,1004.74
2023-02-03T11:20:37.604Z,1004.63
2023-02-03T11:21:37.619Z,1004.59
2023-02-03T11:22:37.653Z,1004.69
2023-02-03T11:23:37.645Z,1004.71
2023-02-03T11:24:37.653Z,1004.78
2023-02-03T11:25:37.668Z,1004.72
2023-02-03T11:26:37.679Z,1004.58
2023-02-03T11:27:37.691Z,1004.52
2023-02-03T11:28:37.693Z,1004.37
2023-02-03T11:29:37.708Z,1004.49
2023-02-03T11:30:37.717Z,1004.71
2023-02-03T11:31:37.871Z,1004.53
2023-02-03T11:32:37.744Z,1004.53
2023-02-03T11:33:37.754Z,1004.49
2023-02-03T11:34:37.766Z,1004.43
2023-02-03T11:35:37.797Z,1004.34
2023-02-03T11:36:37.787Z,1004.48
2023-02-03T11:37:37.807Z,1004.52
2023-02-03T11:38:37.805Z,1004.66
2023-02-03T11:39:37.839Z,1004.51
2023-02-03T11:40:37.834Z,1004.60
2023-02-03T11:41:37.847Z,1004.61
2023-02-03T11:42:37.857Z,1004.62
2023-02-03T11:43:37.871Z,1004.59
2023-02-03T11:44:37.880Z,1004.57
2023-02-03T11:45:37.903Z,1004.63
2023-02-03T11:46:37.990Z,1004.60
2023-02-03T11:47:37.915Z,1004.55
2023-02-03T11:48:37.939Z,1004.54
2023-02-03T11:49:37.935Z,1004.65
2023-02-03T11:50:37.946Z,1004.54
2023-02-03T11:51:37.964Z,1004.64
2023-02-03T11:52:37.970Z,1004.68
2023-02-03T11:53:51.097Z,1004.54
2023-02-03T11:54:37.997Z,1004.49
2023-02-03T11:55:38.002Z,1004.52
2023-02-03T11:56:38.019Z,1004.68
2023-02-03T11:57:38.032Z,1004.52
2023-02-03T11:58:38.040Z,1004.56
2023-02-03T11:59:38.058Z,1004.66
2023-02-03T12:00:38.087Z,1004.65
2023-02-03T12:01:38.073Z,1004.57
2023-02-03T12:02:38.160Z,1004.93
2023-02-03T12:03:38.100Z,1004.73
2023-02-03T12:04:38.187Z,1004.74
2023-02-03T12:05:38.118Z,1004.87